sensor_id;sensor_type;location;lat;lon;timestamp;P1;durP1;ratioP1;P2;durP2;ratioP2
31004;SDS011;17676;52.254;4.490;2023-08-17T00:00:24;6.03;;;2.20;;
31004;SDS011;17676;52.254;4.490;2023-08-17T00:02:49;4.40;;;1.70;;
31004;SDS011;17676;52.254;4.490;2023-08-17T00:05:15;2.15;;;1.55;;
31004;SDS011;17676;52.254;4.490;2023-08-17T00:07:40;5.43;;;2.05;;
31004;SDS011;17676;52.254;4.490;2023-08-17T00:10:06;5.97;;;1.67;;
31004;SDS011;17676;52.254;4.490;2023-08-17T00:12:32;5.45;;;1.90;;
31004;SDS011;17676;52.254;4.490;2023-08-17T00:14:57;7.70;;;1.75;;
31004;SDS011;17676;52.254;4.490;2023-08-17T00:17:22;5.60;;;1.90;;
31004;SDS011;17676;52.254;4.490;2023-08-17T00:19:48;7.63;;;1.52;;
31004;SDS011;17676;52.254;4.490;2023-08-17T00:22:15;5.68;;;1.90;;
31004;SDS011;17676;52.254;4.490;2023-08-17T00:24:40;5.07;;;2.13;;
31004;SDS011;17676;52.254;4.490;2023-08-17T00:27:09;9.98;;;1.80;;
31004;SDS011;17676;52.254;4.490;2023-08-17T00:29:34;6.10;;;1.83;;
31004;SDS011;17676;52.254;4.490;2023-08-17T00:32:00;8.48;;;1.83;;
31004;SDS011;17676;52.254;4.490;2023-08-17T00:34:26;4.88;;;1.60;;
31004;SDS011;17676;52.254;4.490;2023-08-17T00:36:52;6.28;;;1.77;;
31004;SDS011;17676;52.254;4.490;2023-08-17T00:39:17;6.80;;;1.77;;
31004;SDS011;17676;52.254;4.490;2023-08-17T00:41:43;5.65;;;1.52;;
31004;SDS011;17676;52.254;4.490;2023-08-17T00:44:09;4.13;;;1.20;;
31004;SDS011;17676;52.254;4.490;2023-08-17T00:46:37;7.05;;;1.73;;
31004;SDS011;17676;52.254;4.490;2023-08-17T00:49:03;6.30;;;1.83;;
31004;SDS011;17676;52.254;4.490;2023-08-17T00:51:30;5.70;;;1.20;;
31004;SDS011;17676;52.254;4.490;2023-08-17T00:53:57;4.50;;;1.55;;
31004;SDS011;17676;52.254;4.490;2023-08-17T00:56:24;5.10;;;1.60;;
31004;SDS011;17676;52.254;4.490;2023-08-17T00:58:51;6.80;;;1.70;;
31004;SDS011;17676;52.254;4.490;2023-08-17T01:01:17;5.20;;;1.25;;
31004;SDS011;17676;52.254;4.490;2023-08-17T01:03:43;5.78;;;1.48;;
31004;SDS011;17676;52.254;4.490;2023-08-17T01:06:08;4.25;;;1.65;;
31004;SDS011;17676;52.254;4.490;2023-08-17T01:08:35;3.97;;;1.30;;
31004;SDS011;17676;52.254;4.490;2023-08-17T01:11:05;5.53;;;1.42;;
31004;SDS011;17676;52.254;4.490;2023-08-17T01:13:44;3.97;;;1.42;;
31004;SDS011;17676;52.254;4.490;2023-08-17T01:16:17;5.32;;;1.60;;
31004;SDS011;17676;52.254;4.490;2023-08-17T01:18:51;3.33;;;1.55;;
31004;SDS011;17676;52.254;4.490;2023-08-17T01:21:17;3.53;;;1.30;;
31004;SDS011;17676;52.254;4.490;2023-08-17T01:23:48;2.80;;;1.30;;
31004;SDS011;17676;52.254;4.490;2023-08-17T01:26:14;5.07;;;1.45;;
31004;SDS011;17676;52.254;4.490;2023-08-17T01:28:44;4.68;;;1.45;;
31004;SDS011;17676;52.254;4.490;2023-08-17T01:31:12;5.25;;;1.58;;
31004;SDS011;17676;52.254;4.490;2023-08-17T01:33:45;6.35;;;1.77;;
31004;SDS011;17676;52.254;4.490;2023-08-17T01:36:19;4.07;;;1.35;;
31004;SDS011;17676;52.254;4.490;2023-08-17T01:38:51;6.13;;;1.90;;
31004;SDS011;17676;52.254;4.490;2023-08-17T01:41:17;5.50;;;1.83;;
31004;SDS011;17676;52.254;4.490;2023-08-17T01:43:45;5.22;;;1.60;;
31004;SDS011;17676;52.254;4.490;2023-08-17T01:46:16;4.60;;;1.92;;
31004;SDS011;17676;52.254;4.490;2023-08-17T01:48:42;5.43;;;1.75;;
31004;SDS011;17676;52.254;4.490;2023-08-17T01:51:09;4.80;;;1.63;;
31004;SDS011;17676;52.254;4.490;2023-08-17T01:53:35;4.10;;;2.05;;
31004;SDS011;17676;52.254;4.490;2023-08-17T01:56:01;2.30;;;1.55;;
31004;SDS011;17676;52.254;4.490;2023-08-17T01:58:26;2.80;;;1.15;;
31004;SDS011;17676;52.254;4.490;2023-08-17T02:00:52;3.17;;;1.65;;
31004;SDS011;17676;52.254;4.490;2023-08-17T02:03:17;3.10;;;1.75;;
31004;SDS011;17676;52.254;4.490;2023-08-17T02:05:46;5.18;;;1.85;;
31004;SDS011;17676;52.254;4.490;2023-08-17T02:08:12;7.82;;;1.98;;
31004;SDS011;17676;52.254;4.490;2023-08-17T02:10:37;5.88;;;1.50;;
31004;SDS011;17676;52.254;4.490;2023-08-17T02:13:03;6.30;;;2.22;;
31004;SDS011;17676;52.254;4.490;2023-08-17T02:15:28;5.40;;;1.85;;
31004;SDS011;17676;52.254;4.490;2023-08-17T02:17:54;5.70;;;1.75;;
31004;SDS011;17676;52.254;4.490;2023-08-17T02:20:20;5.68;;;1.40;;
31004;SDS011;17676;52.254;4.490;2023-08-17T02:22:45;5.60;;;1.50;;
31004;SDS011;17676;52.254;4.490;2023-08-17T02:25:11;5.88;;;1.55;;
31004;SDS011;17676;52.254;4.490;2023-08-17T02:27:36;5.40;;;1.60;;
31004;SDS011;17676;52.254;4.490;2023-08-17T02:30:02;5.75;;;1.75;;
31004;SDS011;17676;52.254;4.490;2023-08-17T02:32:29;4.68;;;1.77;;
31004;SDS011;17676;52.254;4.490;2023-08-17T02:34:54;3.03;;;1.45;;
31004;SDS011;17676;52.254;4.490;2023-08-17T02:37:20;4.20;;;1.52;;
31004;SDS011;17676;52.254;4.490;2023-08-17T02:39:45;3.00;;;1.30;;
31004;SDS011;17676;52.254;4.490;2023-08-17T02:42:11;3.58;;;1.42;;
31004;SDS011;17676;52.254;4.490;2023-08-17T02:44:36;3.83;;;1.35;;
31004;SDS011;17676;52.254;4.490;2023-08-17T02:47:01;5.90;;;2.10;;
31004;SDS011;17676;52.254;4.490;2023-08-17T02:49:27;6.03;;;1.67;;
31004;SDS011;17676;52.254;4.490;2023-08-17T02:51:52;7.18;;;1.70;;
31004;SDS011;17676;52.254;4.490;2023-08-17T02:54:18;3.60;;;1.23;;
31004;SDS011;17676;52.254;4.490;2023-08-17T02:56:43;4.97;;;1.60;;
31004;SDS011;17676;52.254;4.490;2023-08-17T02:59:08;5.82;;;1.92;;
31004;SDS011;17676;52.254;4.490;2023-08-17T03:01:34;3.97;;;1.25;;
31004;SDS011;17676;52.254;4.490;2023-08-17T03:04:00;4.63;;;1.50;;
31004;SDS011;17676;52.254;4.490;2023-08-17T03:06:25;4.90;;;1.67;;
31004;SDS011;17676;52.254;4.490;2023-08-17T03:08:51;4.82;;;1.27;;
31004;SDS011;17676;52.254;4.490;2023-08-17T03:11:18;3.97;;;1.25;;
31004;SDS011;17676;52.254;4.490;2023-08-17T03:13:43;4.40;;;1.45;;
31004;SDS011;17676;52.254;4.490;2023-08-17T03:16:10;6.28;;;1.50;;
31004;SDS011;17676;52.254;4.490;2023-08-17T03:18:37;9.57;;;1.75;;
31004;SDS011;17676;52.254;4.490;2023-08-17T03:21:02;9.05;;;1.83;;
31004;SDS011;17676;52.254;4.490;2023-08-17T03:23:28;6.32;;;1.60;;
31004;SDS011;17676;52.254;4.490;2023-08-17T03:25:53;4.82;;;1.98;;
31004;SDS011;17676;52.254;4.490;2023-08-17T03:28:19;4.72;;;1.88;;
31004;SDS011;17676;52.254;4.490;2023-08-17T03:30:46;7.15;;;1.80;;
31004;SDS011;17676;52.254;4.490;2023-08-17T03:33:11;5.75;;;1.73;;
31004;SDS011;17676;52.254;4.490;2023-08-17T03:35:37;4.85;;;1.50;;
31004;SDS011;17676;52.254;4.490;2023-08-17T03:38:02;3.22;;;1.50;;
31004;SDS011;17676;52.254;4.490;2023-08-17T03:40:28;5.88;;;2.30;;
31004;SDS011;17676;52.254;4.490;2023-08-17T03:42:54;4.65;;;1.35;;
31004;SDS011;17676;52.254;4.490;2023-08-17T03:45:19;6.70;;;1.63;;
31004;SDS011;17676;52.254;4.490;2023-08-17T03:47:45;6.22;;;2.35;;
31004;SDS011;17676;52.254;4.490;2023-08-17T03:50:10;3.67;;;2.15;;
31004;SDS011;17676;52.254;4.490;2023-08-17T03:52:36;6.45;;;1.95;;
31004;SDS011;17676;52.254;4.490;2023-08-17T03:55:02;5.07;;;1.70;;
31004;SDS011;17676;52.254;4.490;2023-08-17T03:57:28;4.15;;;1.55;;
31004;SDS011;17676;52.254;4.490;2023-08-17T03:59:53;5.05;;;1.90;;
31004;SDS011;17676;52.254;4.490;2023-08-17T04:02:19;5.53;;;1.55;;
31004;SDS011;17676;52.254;4.490;2023-08-17T04:04:44;7.05;;;2.30;;
31004;SDS011;17676;52.254;4.490;2023-08-17T04:07:10;5.63;;;2.22;;
31004;SDS011;17676;52.254;4.490;2023-08-17T04:09:35;4.95;;;2.05;;
31004;SDS011;17676;52.254;4.490;2023-08-17T04:12:01;5.07;;;2.20;;
31004;SDS011;17676;52.254;4.490;2023-08-17T04:14:29;6.13;;;2.22;;
31004;SDS011;17676;52.254;4.490;2023-08-17T04:16:54;6.25;;;2.08;;
31004;SDS011;17676;52.254;4.490;2023-08-17T04:19:21;3.92;;;2.13;;
31004;SDS011;17676;52.254;4.490;2023-08-17T04:21:47;5.70;;;2.47;;
31004;SDS011;17676;52.254;4.490;2023-08-17T04:24:12;6.82;;;2.85;;
31004;SDS011;17676;52.254;4.490;2023-08-17T04:26:37;4.53;;;2.33;;
31004;SDS011;17676;52.254;4.490;2023-08-17T04:29:03;4.18;;;2.80;;
31004;SDS011;17676;52.254;4.490;2023-08-17T04:31:29;10.35;;;2.53;;
31004;SDS011;17676;52.254;4.490;2023-08-17T04:33:54;5.82;;;2.20;;
31004;SDS011;17676;52.254;4.490;2023-08-17T04:36:19;6.18;;;2.20;;
31004;SDS011;17676;52.254;4.490;2023-08-17T04:38:45;3.65;;;2.25;;
31004;SDS011;17676;52.254;4.490;2023-08-17T04:41:10;4.40;;;2.35;;
31004;SDS011;17676;52.254;4.490;2023-08-17T04:43:36;7.18;;;2.58;;
31004;SDS011;17676;52.254;4.490;2023-08-17T04:46:02;4.75;;;2.30;;
31004;SDS011;17676;52.254;4.490;2023-08-17T04:48:27;9.10;;;2.35;;
31004;SDS011;17676;52.254;4.490;2023-08-17T04:50:53;7.68;;;2.35;;
31004;SDS011;17676;52.254;4.490;2023-08-17T04:53:19;4.63;;;2.08;;
31004;SDS011;17676;52.254;4.490;2023-08-17T04:55:44;3.05;;;2.10;;
31004;SDS011;17676;52.254;4.490;2023-08-17T04:58:12;3.47;;;2.30;;
31004;SDS011;17676;52.254;4.490;2023-08-17T05:00:37;5.15;;;2.00;;
31004;SDS011;17676;52.254;4.490;2023-08-17T05:03:03;4.05;;;1.98;;
31004;SDS011;17676;52.254;4.490;2023-08-17T05:05:29;5.05;;;2.58;;
31004;SDS011;17676;52.254;4.490;2023-08-17T05:07:55;5.63;;;2.03;;
31004;SDS011;17676;52.254;4.490;2023-08-17T05:10:21;7.07;;;2.38;;
31004;SDS011;17676;52.254;4.490;2023-08-17T05:12:46;5.25;;;2.13;;
31004;SDS011;17676;52.254;4.490;2023-08-17T05:15:12;4.60;;;2.08;;
31004;SDS011;17676;52.254;4.490;2023-08-17T05:17:37;3.85;;;2.15;;
31004;SDS011;17676;52.254;4.490;2023-08-17T05:20:03;6.95;;;1.90;;
31004;SDS011;17676;52.254;4.490;2023-08-17T05:22:29;5.60;;;2.15;;
31004;SDS011;17676;52.254;4.490;2023-08-17T05:24:55;6.35;;;2.38;;
31004;SDS011;17676;52.254;4.490;2023-08-17T05:27:20;2.67;;;1.83;;
31004;SDS011;17676;52.254;4.490;2023-08-17T05:29:46;6.07;;;2.05;;
31004;SDS011;17676;52.254;4.490;2023-08-17T05:32:11;9.52;;;2.08;;
31004;SDS011;17676;52.254;4.490;2023-08-17T05:34:36;4.93;;;2.17;;
31004;SDS011;17676;52.254;4.490;2023-08-17T05:37:02;6.40;;;2.05;;
31004;SDS011;17676;52.254;4.490;2023-08-17T05:39:28;4.85;;;1.80;;
31004;SDS011;17676;52.254;4.490;2023-08-17T05:41:54;3.28;;;1.55;;
31004;SDS011;17676;52.254;4.490;2023-08-17T05:44:19;2.60;;;1.73;;
31004;SDS011;17676;52.254;4.490;2023-08-17T05:46:45;4.30;;;1.50;;
31004;SDS011;17676;52.254;4.490;2023-08-17T05:49:12;3.45;;;1.77;;
31004;SDS011;17676;52.254;4.490;2023-08-17T05:51:37;4.80;;;2.15;;
31004;SDS011;17676;52.254;4.490;2023-08-17T05:54:03;6.78;;;1.80;;
31004;SDS011;17676;52.254;4.490;2023-08-17T05:56:29;9.80;;;1.55;;
31004;SDS011;17676;52.254;4.490;2023-08-17T05:58:55;3.88;;;1.52;;
31004;SDS011;17676;52.254;4.490;2023-08-17T06:01:21;3.33;;;1.42;;
31004;SDS011;17676;52.254;4.490;2023-08-17T06:03:47;7.95;;;1.50;;
31004;SDS011;17676;52.254;4.490;2023-08-17T06:06:12;6.10;;;1.27;;
31004;SDS011;17676;52.254;4.490;2023-08-17T06:08:38;6.60;;;1.58;;
31004;SDS011;17676;52.254;4.490;2023-08-17T06:11:04;3.70;;;1.10;;
31004;SDS011;17676;52.254;4.490;2023-08-17T06:13:29;3.00;;;1.38;;
31004;SDS011;17676;52.254;4.490;2023-08-17T06:15:58;4.63;;;1.30;;
31004;SDS011;17676;52.254;4.490;2023-08-17T06:18:23;6.15;;;1.85;;
31004;SDS011;17676;52.254;4.490;2023-08-17T06:20:49;12.30;;;2.45;;
31004;SDS011;17676;52.254;4.490;2023-08-17T06:23:19;2.70;;;1.25;;
31004;SDS011;17676;52.254;4.490;2023-08-17T06:25:45;2.55;;;1.02;;
31004;SDS011;17676;52.254;4.490;2023-08-17T06:28:10;4.65;;;0.90;;
31004;SDS011;17676;52.254;4.490;2023-08-17T06:30:36;5.57;;;1.20;;
31004;SDS011;17676;52.254;4.490;2023-08-17T06:33:01;5.20;;;1.17;;
31004;SDS011;17676;52.254;4.490;2023-08-17T06:35:27;4.47;;;0.93;;
31004;SDS011;17676;52.254;4.490;2023-08-17T06:37:52;3.65;;;1.13;;
31004;SDS011;17676;52.254;4.490;2023-08-17T06:40:21;5.88;;;1.02;;
31004;SDS011;17676;52.254;4.490;2023-08-17T06:42:47;5.22;;;0.93;;
31004;SDS011;17676;52.254;4.490;2023-08-17T06:45:13;5.82;;;0.90;;
31004;SDS011;17676;52.254;4.490;2023-08-17T06:47:43;6.68;;;1.13;;
31004;SDS011;17676;52.254;4.490;2023-08-17T06:50:10;6.13;;;1.15;;
31004;SDS011;17676;52.254;4.490;2023-08-17T06:52:35;4.75;;;1.70;;
31004;SDS011;17676;52.254;4.490;2023-08-17T06:55:01;2.85;;;1.00;;
31004;SDS011;17676;52.254;4.490;2023-08-17T06:57:27;4.20;;;1.20;;
31004;SDS011;17676;52.254;4.490;2023-08-17T06:59:53;3.17;;;0.73;;
31004;SDS011;17676;52.254;4.490;2023-08-17T07:02:19;6.03;;;1.25;;
31004;SDS011;17676;52.254;4.490;2023-08-17T07:04:45;5.00;;;1.10;;
31004;SDS011;17676;52.254;4.490;2023-08-17T07:07:10;3.60;;;0.70;;
31004;SDS011;17676;52.254;4.490;2023-08-17T07:09:36;4.18;;;1.13;;
31004;SDS011;17676;52.254;4.490;2023-08-17T07:12:03;2.45;;;0.50;;
31004;SDS011;17676;52.254;4.490;2023-08-17T07:14:29;2.95;;;0.88;;
31004;SDS011;17676;52.254;4.490;2023-08-17T07:16:54;4.47;;;0.80;;
31004;SDS011;17676;52.254;4.490;2023-08-17T07:19:20;9.05;;;1.27;;
31004;SDS011;17676;52.254;4.490;2023-08-17T07:21:46;3.58;;;0.82;;
31004;SDS011;17676;52.254;4.490;2023-08-17T07:24:12;2.67;;;0.60;;
31004;SDS011;17676;52.254;4.490;2023-08-17T07:26:39;3.13;;;0.65;;
31004;SDS011;17676;52.254;4.490;2023-08-17T07:29:05;4.22;;;0.70;;
31004;SDS011;17676;52.254;4.490;2023-08-17T07:31:30;2.67;;;0.70;;
31004;SDS011;17676;52.254;4.490;2023-08-17T07:33:58;3.20;;;0.80;;
31004;SDS011;17676;52.254;4.490;2023-08-17T07:36:24;3.97;;;0.40;;
31004;SDS011;17676;52.254;4.490;2023-08-17T07:38:49;1.05;;;0.32;;
31004;SDS011;17676;52.254;4.490;2023-08-17T07:41:14;2.92;;;0.60;;
31004;SDS011;17676;52.254;4.490;2023-08-17T07:43:40;3.70;;;0.52;;
31004;SDS011;17676;52.254;4.490;2023-08-17T07:46:06;2.22;;;0.40;;
31004;SDS011;17676;52.254;4.490;2023-08-17T07:48:31;3.67;;;0.40;;
31004;SDS011;17676;52.254;4.490;2023-08-17T07:50:59;2.95;;;0.40;;
31004;SDS011;17676;52.254;4.490;2023-08-17T07:53:24;4.78;;;0.50;;
31004;SDS011;17676;52.254;4.490;2023-08-17T07:55:50;4.18;;;0.43;;
31004;SDS011;17676;52.254;4.490;2023-08-17T07:58:16;1.70;;;0.40;;
31004;SDS011;17676;52.254;4.490;2023-08-17T08:00:42;1.77;;;0.32;;
31004;SDS011;17676;52.254;4.490;2023-08-17T08:03:08;2.10;;;0.63;;
31004;SDS011;17676;52.254;4.490;2023-08-17T08:05:34;2.30;;;0.50;;
31004;SDS011;17676;52.254;4.490;2023-08-17T08:08:00;3.40;;;0.40;;
31004;SDS011;17676;52.254;4.490;2023-08-17T08:10:26;2.95;;;0.45;;
31004;SDS011;17676;52.254;4.490;2023-08-17T08:12:53;3.40;;;0.30;;
31004;SDS011;17676;52.254;4.490;2023-08-17T08:15:19;2.97;;;0.40;;
31004;SDS011;17676;52.254;4.490;2023-08-17T08:17:45;6.38;;;0.28;;
31004;SDS011;17676;52.254;4.490;2023-08-17T08:20:10;0.98;;;0.20;;
31004;SDS011;17676;52.254;4.490;2023-08-17T08:22:36;1.63;;;0.50;;
31004;SDS011;17676;52.254;4.490;2023-08-17T08:25:01;3.85;;;0.38;;
31004;SDS011;17676;52.254;4.490;2023-08-17T08:27:27;1.65;;;0.30;;
31004;SDS011;17676;52.254;4.490;2023-08-17T08:29:52;4.70;;;0.40;;
31004;SDS011;17676;52.254;4.490;2023-08-17T08:32:18;2.10;;;0.35;;
31004;SDS011;17676;52.254;4.490;2023-08-17T08:34:43;4.05;;;0.30;;
31004;SDS011;17676;52.254;4.490;2023-08-17T08:37:09;2.85;;;0.30;;
31004;SDS011;17676;52.254;4.490;2023-08-17T08:39:47;2.28;;;0.30;;
31004;SDS011;17676;52.254;4.490;2023-08-17T08:42:15;1.33;;;0.47;;
31004;SDS011;17676;52.254;4.490;2023-08-17T08:44:41;1.73;;;0.20;;
31004;SDS011;17676;52.254;4.490;2023-08-17T08:47:06;2.33;;;0.30;;
31004;SDS011;17676;52.254;4.490;2023-08-17T08:49:37;1.00;;;0.20;;
31004;SDS011;17676;52.254;4.490;2023-08-17T08:52:05;2.13;;;0.30;;
31004;SDS011;17676;52.254;4.490;2023-08-17T08:54:32;3.42;;;0.30;;
31004;SDS011;17676;52.254;4.490;2023-08-17T08:57:04;2.30;;;0.22;;
31004;SDS011;17676;52.254;4.490;2023-08-17T08:59:34;1.33;;;0.20;;
31004;SDS011;17676;52.254;4.490;2023-08-17T09:02:01;8.75;;;0.40;;
31004;SDS011;17676;52.254;4.490;2023-08-17T09:04:28;1.90;;;0.25;;
31004;SDS011;17676;52.254;4.490;2023-08-17T09:06:54;1.55;;;0.30;;
31004;SDS011;17676;52.254;4.490;2023-08-17T09:09:21;1.55;;;0.20;;
31004;SDS011;17676;52.254;4.490;2023-08-17T09:11:47;4.00;;;0.20;;
31004;SDS011;17676;52.254;4.490;2023-08-17T09:14:13;1.70;;;0.15;;
31004;SDS011;17676;52.254;4.490;2023-08-17T09:16:38;2.05;;;0.20;;
31004;SDS011;17676;52.254;4.490;2023-08-17T09:19:04;3.08;;;0.20;;
31004;SDS011;17676;52.254;4.490;2023-08-17T09:21:31;1.05;;;0.20;;
31004;SDS011;17676;52.254;4.490;2023-08-17T09:23:58;1.58;;;0.30;;
31004;SDS011;17676;52.254;4.490;2023-08-17T09:26:23;3.97;;;0.20;;
31004;SDS011;17676;52.254;4.490;2023-08-17T09:28:49;2.00;;;0.28;;
31004;SDS011;17676;52.254;4.490;2023-08-17T09:31:15;2.35;;;0.20;;
31004;SDS011;17676;52.254;4.490;2023-08-17T09:33:41;1.05;;;0.20;;
31004;SDS011;17676;52.254;4.490;2023-08-17T09:36:06;1.15;;;0.20;;
31004;SDS011;17676;52.254;4.490;2023-08-17T09:38:31;3.70;;;0.30;;
31004;SDS011;17676;52.254;4.490;2023-08-17T09:40:57;3.92;;;0.30;;
31004;SDS011;17676;52.254;4.490;2023-08-17T09:43:23;2.10;;;0.20;;
31004;SDS011;17676;52.254;4.490;2023-08-17T09:45:53;3.95;;;0.40;;
31004;SDS011;17676;52.254;4.490;2023-08-17T09:48:19;2.45;;;0.30;;
31004;SDS011;17676;52.254;4.490;2023-08-17T09:50:46;2.63;;;0.20;;
31004;SDS011;17676;52.254;4.490;2023-08-17T09:53:12;2.35;;;0.20;;
31004;SDS011;17676;52.254;4.490;2023-08-17T09:55:44;4.13;;;0.20;;
31004;SDS011;17676;52.254;4.490;2023-08-17T09:58:11;1.65;;;0.25;;
31004;SDS011;17676;52.254;4.490;2023-08-17T10:00:40;1.77;;;0.20;;
31004;SDS011;17676;52.254;4.490;2023-08-17T10:03:16;3.67;;;0.30;;
31004;SDS011;17676;52.254;4.490;2023-08-17T10:05:43;2.00;;;0.40;;
31004;SDS011;17676;52.254;4.490;2023-08-17T10:08:11;3.33;;;0.30;;
31004;SDS011;17676;52.254;4.490;2023-08-17T10:10:40;4.25;;;0.35;;
31004;SDS011;17676;52.254;4.490;2023-08-17T10:13:09;3.80;;;0.50;;
31004;SDS011;17676;52.254;4.490;2023-08-17T10:15:55;2.47;;;0.40;;
31004;SDS011;17676;52.254;4.490;2023-08-17T10:18:29;5.38;;;0.40;;
31004;SDS011;17676;52.254;4.490;2023-08-17T10:21:09;1.40;;;0.20;;
31004;SDS011;17676;52.254;4.490;2023-08-17T10:23:38;3.80;;;0.35;;
31004;SDS011;17676;52.254;4.490;2023-08-17T10:26:04;5.57;;;0.30;;
31004;SDS011;17676;52.254;4.490;2023-08-17T10:28:32;1.45;;;0.30;;
31004;SDS011;17676;52.254;4.490;2023-08-17T10:30:59;1.98;;;0.20;;
31004;SDS011;17676;52.254;4.490;2023-08-17T10:33:24;10.75;;;0.30;;
31004;SDS011;17676;52.254;4.490;2023-08-17T10:35:51;2.53;;;0.20;;
31004;SDS011;17676;52.254;4.490;2023-08-17T10:38:17;2.42;;;0.20;;
31004;SDS011;17676;52.254;4.490;2023-08-17T10:40:43;1.10;;;0.20;;
31004;SDS011;17676;52.254;4.490;2023-08-17T10:43:09;1.65;;;0.20;;
31004;SDS011;17676;52.254;4.490;2023-08-17T10:45:36;1.77;;;0.15;;
31004;SDS011;17676;52.254;4.490;2023-08-17T10:50:31;1.33;;;0.30;;
31004;SDS011;17676;52.254;4.490;2023-08-17T10:52:58;2.10;;;0.30;;
31004;SDS011;17676;52.254;4.490;2023-08-17T10:55:38;2.30;;;0.20;;
31004;SDS011;17676;52.254;4.490;2023-08-17T10:58:05;1.45;;;0.20;;
31004;SDS011;17676;52.254;4.490;2023-08-17T11:00:36;4.88;;;0.35;;
31004;SDS011;17676;52.254;4.490;2023-08-17T11:03:06;2.88;;;0.20;;
31004;SDS011;17676;52.254;4.490;2023-08-17T11:08:22;3.08;;;0.20;;
31004;SDS011;17676;52.254;4.490;2023-08-17T11:13:32;0.50;;;0.20;;
31004;SDS011;17676;52.254;4.490;2023-08-17T11:15:59;5.07;;;0.50;;
31004;SDS011;17676;52.254;4.490;2023-08-17T11:18:26;2.55;;;0.30;;
31004;SDS011;17676;52.254;4.490;2023-08-17T11:20:52;2.45;;;0.40;;
31004;SDS011;17676;52.254;4.490;2023-08-17T11:23:19;1.85;;;0.30;;
31004;SDS011;17676;52.254;4.490;2023-08-17T11:25:45;3.30;;;0.40;;
31004;SDS011;17676;52.254;4.490;2023-08-17T11:28:11;2.10;;;0.40;;
31004;SDS011;17676;52.254;4.490;2023-08-17T11:30:40;3.55;;;0.30;;
31004;SDS011;17676;52.254;4.490;2023-08-17T11:33:07;3.00;;;0.40;;
31004;SDS011;17676;52.254;4.490;2023-08-17T11:35:33;3.85;;;0.40;;
31004;SDS011;17676;52.254;4.490;2023-08-17T11:37:58;3.20;;;0.20;;
31004;SDS011;17676;52.254;4.490;2023-08-17T11:40:25;1.55;;;0.50;;
31004;SDS011;17676;52.254;4.490;2023-08-17T11:42:51;1.80;;;0.50;;
31004;SDS011;17676;52.254;4.490;2023-08-17T11:45:17;3.22;;;0.40;;
31004;SDS011;17676;52.254;4.490;2023-08-17T11:47:43;2.78;;;0.40;;
31004;SDS011;17676;52.254;4.490;2023-08-17T11:50:10;2.90;;;0.60;;
31004;SDS011;17676;52.254;4.490;2023-08-17T11:52:37;4.45;;;0.50;;
31004;SDS011;17676;52.254;4.490;2023-08-17T11:55:07;5.20;;;0.50;;
31004;SDS011;17676;52.254;4.490;2023-08-17T11:57:36;4.07;;;0.55;;
31004;SDS011;17676;52.254;4.490;2023-08-17T12:00:03;3.30;;;0.70;;
31004;SDS011;17676;52.254;4.490;2023-08-17T12:02:31;3.08;;;0.50;;
31004;SDS011;17676;52.254;4.490;2023-08-17T12:05:02;2.75;;;0.45;;
31004;SDS011;17676;52.254;4.490;2023-08-17T12:07:32;4.07;;;0.50;;
31004;SDS011;17676;52.254;4.490;2023-08-17T12:09:58;2.03;;;0.40;;
31004;SDS011;17676;52.254;4.490;2023-08-17T12:12:24;4.85;;;0.65;;
31004;SDS011;17676;52.254;4.490;2023-08-17T12:14:49;5.47;;;0.55;;
31004;SDS011;17676;52.254;4.490;2023-08-17T12:17:15;4.05;;;0.60;;
31004;SDS011;17676;52.254;4.490;2023-08-17T12:19:44;4.72;;;0.68;;
31004;SDS011;17676;52.254;4.490;2023-08-17T12:22:14;6.72;;;0.73;;
31004;SDS011;17676;52.254;4.490;2023-08-17T12:24:39;5.68;;;0.50;;
31004;SDS011;17676;52.254;4.490;2023-08-17T12:27:05;3.50;;;0.40;;
31004;SDS011;17676;52.254;4.490;2023-08-17T12:29:31;4.35;;;0.65;;
31004;SDS011;17676;52.254;4.490;2023-08-17T12:31:57;0.95;;;0.43;;
31004;SDS011;17676;52.254;4.490;2023-08-17T12:34:23;1.20;;;0.40;;
31004;SDS011;17676;52.254;4.490;2023-08-17T12:36:49;3.08;;;0.50;;
31004;SDS011;17676;52.254;4.490;2023-08-17T12:39:15;4.93;;;1.27;;
31004;SDS011;17676;52.254;4.490;2023-08-17T12:41:40;3.35;;;0.50;;
31004;SDS011;17676;52.254;4.490;2023-08-17T12:44:06;1.70;;;0.50;;
31004;SDS011;17676;52.254;4.490;2023-08-17T12:49:08;2.58;;;0.50;;
31004;SDS011;17676;52.254;4.490;2023-08-17T12:51:33;3.65;;;0.40;;
31004;SDS011;17676;52.254;4.490;2023-08-17T12:54:02;3.30;;;0.68;;
31004;SDS011;17676;52.254;4.490;2023-08-17T12:56:28;1.73;;;0.40;;
31004;SDS011;17676;52.254;4.490;2023-08-17T12:58:54;2.92;;;0.65;;
31004;SDS011;17676;52.254;4.490;2023-08-17T13:01:22;5.30;;;0.52;;
31004;SDS011;17676;52.254;4.490;2023-08-17T13:03:47;2.08;;;0.40;;
31004;SDS011;17676;52.254;4.490;2023-08-17T13:06:13;6.25;;;0.60;;
31004;SDS011;17676;52.254;4.490;2023-08-17T13:08:38;2.45;;;0.73;;
31004;SDS011;17676;52.254;4.490;2023-08-17T13:11:04;2.65;;;0.68;;
31004;SDS011;17676;52.254;4.490;2023-08-17T13:13:29;5.05;;;0.82;;
31004;SDS011;17676;52.254;4.490;2023-08-17T13:15:54;3.67;;;1.17;;
31004;SDS011;17676;52.254;4.490;2023-08-17T13:18:20;3.10;;;0.40;;
31004;SDS011;17676;52.254;4.490;2023-08-17T13:20:45;1.63;;;0.52;;
31004;SDS011;17676;52.254;4.490;2023-08-17T13:23:11;2.72;;;0.60;;
31004;SDS011;17676;52.254;4.490;2023-08-17T13:25:36;3.40;;;0.70;;
31004;SDS011;17676;52.254;4.490;2023-08-17T13:28:02;1.25;;;0.60;;
31004;SDS011;17676;52.254;4.490;2023-08-17T13:30:27;2.83;;;0.50;;
31004;SDS011;17676;52.254;4.490;2023-08-17T13:32:53;3.97;;;0.55;;
31004;SDS011;17676;52.254;4.490;2023-08-17T13:35:18;3.03;;;0.50;;
31004;SDS011;17676;52.254;4.490;2023-08-17T13:37:44;1.70;;;0.40;;
31004;SDS011;17676;52.254;4.490;2023-08-17T13:40:09;2.30;;;0.73;;
31004;SDS011;17676;52.254;4.490;2023-08-17T13:42:35;4.47;;;0.52;;
31004;SDS011;17676;52.254;4.490;2023-08-17T13:45:01;1.48;;;0.50;;
31004;SDS011;17676;52.254;4.490;2023-08-17T13:47:28;4.95;;;0.68;;
31004;SDS011;17676;52.254;4.490;2023-08-17T13:49:54;3.35;;;0.60;;
31004;SDS011;17676;52.254;4.490;2023-08-17T13:52:21;5.68;;;0.55;;
31004;SDS011;17676;52.254;4.490;2023-08-17T13:54:46;5.95;;;0.73;;
31004;SDS011;17676;52.254;4.490;2023-08-17T13:57:12;1.70;;;0.40;;
31004;SDS011;17676;52.254;4.490;2023-08-17T13:59:37;9.57;;;1.02;;
31004;SDS011;17676;52.254;4.490;2023-08-17T14:02:06;3.00;;;0.40;;
31004;SDS011;17676;52.254;4.490;2023-08-17T14:04:32;2.42;;;0.55;;
31004;SDS011;17676;52.254;4.490;2023-08-17T14:06:57;4.25;;;0.70;;
31004;SDS011;17676;52.254;4.490;2023-08-17T14:09:23;1.92;;;0.60;;
31004;SDS011;17676;52.254;4.490;2023-08-17T14:11:48;2.53;;;0.70;;
31004;SDS011;17676;52.254;4.490;2023-08-17T14:14:13;2.67;;;0.63;;
31004;SDS011;17676;52.254;4.490;2023-08-17T14:16:41;5.32;;;0.82;;
31004;SDS011;17676;52.254;4.490;2023-08-17T14:19:07;4.15;;;0.70;;
31004;SDS011;17676;52.254;4.490;2023-08-17T14:21:33;3.67;;;0.77;;
31004;SDS011;17676;52.254;4.490;2023-08-17T14:23:59;3.03;;;0.50;;
31004;SDS011;17676;52.254;4.490;2023-08-17T14:26:25;4.30;;;0.88;;
31004;SDS011;17676;52.254;4.490;2023-08-17T14:28:51;2.40;;;0.55;;
31004;SDS011;17676;52.254;4.490;2023-08-17T14:31:17;3.35;;;0.82;;
31004;SDS011;17676;52.254;4.490;2023-08-17T14:33:45;3.15;;;0.70;;
31004;SDS011;17676;52.254;4.490;2023-08-17T14:36:14;2.95;;;0.65;;
31004;SDS011;17676;52.254;4.490;2023-08-17T14:38:40;3.08;;;0.90;;
31004;SDS011;17676;52.254;4.490;2023-08-17T14:41:05;1.77;;;0.77;;
31004;SDS011;17676;52.254;4.490;2023-08-17T14:43:32;1.33;;;0.85;;
31004;SDS011;17676;52.254;4.490;2023-08-17T14:45:58;2.50;;;0.88;;
31004;SDS011;17676;52.254;4.490;2023-08-17T14:48:24;2.85;;;0.82;;
31004;SDS011;17676;52.254;4.490;2023-08-17T14:50:49;2.13;;;0.77;;
31004;SDS011;17676;52.254;4.490;2023-08-17T14:53:14;1.73;;;0.65;;